Time;durP1;ratioP1;P1;durP2;ratioP2;P2;SDS_P1;SDS_P2;PMS_P1;PMS_P2;Temp;Humidity;BMP_temperature;BMP_pressure;BME280_temperature;BME280_humidity;BME280_pressure;Samples;Min_cycle;Max_cycle;Signal;HPM_P1;HPM_P2
2024/02/08 00:00:13;;;;;;;5.20;2.22;;;;;;;6.40;100.00;95789.94;5023797;28;20057;-74
2024/02/08 00:02:39;;;;;;;5.00;2.78;;;;;;;6.57;100.00;95774.28;5023421;28;20119;-74
2024/02/08 00:05:06;;;;;;;5.05;2.40;;;;;;;6.50;100.00;95775.75;5028623;28;20478;-75
2024/02/08 00:07:32;;;;;;;4.03;2.30;;;;;;;6.57;100.00;95772.38;5040392;28;20045;-75
2024/02/08 00:09:58;;;;;;;4.35;2.42;;;;;;;6.56;100.00;95775.47;5026522;28;20725;-73
2024/02/08 00:12:24;;;;;;;4.75;2.20;;;;;;;6.63;100.00;95779.06;5022590;28;20060;-73
2024/02/08 00:14:49;;;;;;;5.50;2.22;;;;;;;6.65;100.00;95779.50;5029649;28;20049;-74
2024/02/08 00:17:15;;;;;;;5.22;2.53;;;;;;;6.51;100.00;95776.53;5027959;28;20049;-75
2024/02/08 00:19:41;;;;;;;6.53;2.45;;;;;;;6.45;100.00;95786.94;5020984;28;20137;-74
2024/02/08 00:22:08;;;;;;;6.57;2.63;;;;;;;6.57;100.00;95794.16;5027785;28;20124;-73
2024/02/08 00:24:36;;;;;;;4.20;2.17;;;;;;;6.44;100.00;95787.28;5023627;28;20045;-74
2024/02/08 00:27:04;;;;;;;4.35;2.53;;;;;;;6.50;100.00;95788.59;5026949;28;20047;-70
2024/02/08 00:29:29;;;;;;;4.30;2.50;;;;;;;6.42;100.00;95782.22;5035608;28;20109;-75
2024/02/08 00:31:55;;;;;;;4.13;2.25;;;;;;;6.43;100.00;95788.47;5028511;28;20210;-75
2024/02/08 00:34:22;;;;;;;5.93;2.30;;;;;;;6.39;100.00;95784.88;5026024;28;20049;-73
2024/02/08 00:36:49;;;;;;;4.82;2.60;;;;;;;6.36;100.00;95775.50;5028140;28;20368;-73
2024/02/08 00:39:14;;;;;;;4.72;2.40;;;;;;;6.40;100.00;95781.78;5015322;28;20067;-73
2024/02/08 00:41:47;;;;;;;5.28;2.78;;;;;;;6.39;100.00;95780.22;5028324;28;20551;-73
2024/02/08 00:44:13;;;;;;;4.28;2.15;;;;;;;6.45;100.00;95780.72;5044518;28;20452;-73
2024/02/08 00:46:38;;;;;;;3.95;2.35;;;;;;;6.44;100.00;95774.47;5029831;28;20047;-73
2024/02/08 00:49:04;;;;;;;3.38;2.03;;;;;;;6.57;100.00;95771.56;5016342;28;20049;-73
2024/02/08 00:51:31;;;;;;;5.93;2.22;;;;;;;6.68;100.00;95770.63;5028120;28;20144;-72
2024/02/08 00:53:59;;;;;;;3.60;2.22;;;;;;;6.61;100.00;95769.69;5020025;28;20049;-73
2024/02/08 00:56:25;;;;;;;4.68;2.38;;;;;;;6.53;100.00;95762.56;5023032;28;20052;-72
2024/02/08 00:58:50;;;;;;;4.75;2.22;;;;;;;6.64;100.00;95758.09;5028943;28;20138;-73
2024/02/08 01:01:17;;;;;;;5.57;2.40;;;;;;;6.71;100.00;95755.47;5015449;28;20519;-73
2024/02/08 01:03:43;;;;;;;5.03;2.40;;;;;;;6.62;100.00;95765.84;5019932;28;20424;-72
2024/02/08 01:06:09;;;;;;;3.85;2.30;;;;;;;6.62;100.00;95755.72;5023789;28;20053;-72
2024/02/08 01:08:34;;;;;;;4.35;2.28;;;;;;;6.68;100.00;95758.94;5026626;28;20048;-74
2024/02/08 01:11:00;;;;;;;5.15;2.78;;;;;;;6.61;100.00;95759.63;5031737;28;20539;-71
2024/02/08 01:13:27;;;;;;;4.07;2.30;;;;;;;6.57;100.00;95764.22;5027901;28;20045;-72
2024/02/08 01:15:53;;;;;;;3.72;2.30;;;;;;;6.56;100.00;95762.63;5028096;28;20052;-74
2024/02/08 01:18:20;;;;;;;6.57;2.50;;;;;;;6.50;100.00;95756.72;5038763;28;20416;-73
2024/02/08 01:20:46;;;;;;;3.83;2.30;;;;;;;6.50;100.00;95761.38;5027370;28;20403;-74
2024/02/08 01:23:12;;;;;;;7.05;2.63;;;;;;;6.59;100.00;95758.38;5031617;28;20550;-74
2024/02/08 01:25:41;;;;;;;9.15;2.20;;;;;;;6.62;100.00;95755.72;5017868;28;20050;-73
2024/02/08 01:28:07;;;;;;;4.47;1.90;;;;;;;6.68;100.00;95750.75;5019785;28;20041;-73
2024/02/08 01:30:35;;;;;;;4.32;2.40;;;;;;;6.70;100.00;95751.97;5023637;28;20392;-72
2024/02/08 01:33:01;;;;;;;9.45;2.35;;;;;;;6.64;100.00;95760.81;5031658;28;20040;-73
2024/02/08 01:35:26;;;;;;;3.53;2.25;;;;;;;6.67;100.00;95749.97;5027416;28;20151;-73
2024/02/08 01:37:53;;;;;;;3.22;2.10;;;;;;;6.74;100.00;95751.25;5017224;28;20527;-73
2024/02/08 01:40:19;;;;;;;3.72;2.17;;;;;;;6.68;100.00;95746.13;5023693;28;20055;-73
2024/02/08 01:42:46;;;;;;;4.03;2.15;;;;;;;6.78;100.00;95744.72;5030014;28;20473;-73
2024/02/08 01:45:31;;;;;;;4.90;2.00;;;;;;;6.80;100.00;95747.84;5024143;28;20403;-72
2024/02/08 01:48:15;;;;;;;4.10;2.08;;;;;;;6.73;100.00;95738.78;5033757;28;20132;-74
2024/02/08 01:51:00;;;;;;;2.88;2.08;;;;;;;6.72;100.00;95729.03;5044859;28;20092;-73
2024/02/08 01:53:27;;;;;;;4.13;1.90;;;;;;;6.72;100.00;95742.66;5029907;28;20052;-72
2024/02/08 01:55:54;;;;;;;4.18;2.22;;;;;;;6.69;100.00;95728.63;5010314;28;20515;-74
2024/02/08 01:58:23;;;;;;;5.95;2.10;;;;;;;6.77;100.00;95732.28;5020070;28;20049;-73
2024/02/08 02:00:52;;;;;;;2.25;1.70;;;;;;;6.81;100.00;95733.09;5032108;28;20033;-73
2024/02/08 02:03:19;;;;;;;6.07;2.30;;;;;;;6.83;100.00;95725.34;5022110;28;20583;-72
2024/02/08 02:05:48;;;;;;;2.63;1.92;;;;;;;6.84;100.00;95731.56;5020669;28;20049;-74
2024/02/08 02:08:21;;;;;;;2.90;2.00;;;;;;;6.80;100.00;95723.34;5029953;28;20037;-72
2024/02/08 02:11:06;;;;;;;3.20;2.00;;;;;;;6.77;100.00;95728.75;5030316;28;20136;-73
2024/02/08 02:13:37;;;;;;;2.97;1.70;;;;;;;6.84;100.00;95726.94;5031631;28;20049;-74
2024/02/08 02:16:03;;;;;;;3.75;2.08;;;;;;;6.85;100.00;95722.28;5015790;28;20108;-73
2024/02/08 02:18:29;;;;;;;5.38;2.20;;;;;;;6.87;100.00;95734.34;5034004;28;20400;-73
2024/02/08 02:20:55;;;;;;;5.07;1.80;;;;;;;6.84;100.00;95729.66;5037793;28;20045;-73
2024/02/08 02:23:20;;;;;;;3.65;1.67;;;;;;;6.77;100.00;95736.91;5022930;28;20072;-73
2024/02/08 02:25:48;;;;;;;2.92;1.80;;;;;;;6.77;100.00;95737.72;5021209;28;20041;-73
2024/02/08 02:28:15;;;;;;;4.00;1.98;;;;;;;6.80;100.00;95728.78;5020021;28;20060;-73
2024/02/08 02:30:44;;;;;;;3.00;2.00;;;;;;;6.94;100.00;95741.06;5027136;28;20077;-73
2024/02/08 02:33:12;;;;;;;5.35;1.90;;;;;;;6.98;100.00;95734.50;5022320;28;20117;-72
2024/02/08 02:35:39;;;;;;;3.20;1.92;;;;;;;6.96;100.00;95723.19;5020275;28;20050;-73
2024/02/08 02:38:12;;;;;;;3.95;1.73;;;;;;;6.87;100.00;95734.34;5025971;28;20052;-72
2024/02/08 02:40:41;;;;;;;2.50;1.58;;;;;;;6.91;100.00;95731.69;5031174;28;20067;-73
2024/02/08 02:43:09;;;;;;;4.63;1.70;;;;;;;6.93;100.00;95732.09;5019532;28;20104;-73
2024/02/08 02:45:38;;;;;;;2.63;1.75;;;;;;;6.96;100.00;95727.88;5021850;28;20045;-72
2024/02/08 02:48:03;;;;;;;2.65;1.67;;;;;;;7.05;100.00;95718.28;5041979;28;20068;-72
2024/02/08 02:50:29;;;;;;;4.03;1.80;;;;;;;7.11;100.00;95723.41;5031924;28;20057;-71
2024/02/08 02:52:56;;;;;;;4.10;2.22;;;;;;;7.14;100.00;95718.00;5034836;28;20045;-73
2024/02/08 02:55:22;;;;;;;5.65;2.72;;;;;;;6.97;100.00;95715.81;5021718;28;20057;-73
2024/02/08 02:57:48;;;;;;;3.60;2.13;;;;;;;7.00;100.00;95713.16;5033073;28;20111;-74
2024/02/08 03:00:24;;;;;;;2.85;1.75;;;;;;;7.10;100.00;95710.97;5024822;28;20450;-73
2024/02/08 03:02:57;;;;;;;2.03;1.63;;;;;;;7.08;100.00;95719.50;5034592;28;20079;-72
2024/02/08 03:05:23;;;;;;;4.30;1.63;;;;;;;6.97;100.00;95704.91;5018665;28;20041;-72
2024/02/08 03:07:51;;;;;;;3.67;2.00;;;;;;;6.93;100.00;95718.47;5020383;28;20076;-74
2024/02/08 03:10:21;;;;;;;3.20;1.40;;;;;;;7.12;100.00;95716.81;5008525;28;20033;-74
2024/02/08 03:12:50;;;;;;;3.65;1.85;;;;;;;7.01;100.00;95705.78;5023852;28;20423;-74
2024/02/08 03:15:19;;;;;;;;;;;;;;;7.06;100.00;95705.47;5027365;28;20432;-74
2024/02/08 03:17:46;;;;;;;3.60;1.90;;;;;;;7.14;100.00;95706.34;5022932;28;19917;-74
2024/02/08 03:20:29;;;;;;;4.55;1.60;;;;;;;7.00;100.00;95707.69;5017932;28;20073;-73
2024/02/08 03:22:58;;;;;;;3.13;1.83;;;;;;;7.03;100.00;95700.75;5030958;28;20551;-74
2024/02/08 03:25:27;;;;;;;3.92;1.70;;;;;;;7.05;100.00;95712.06;5017163;28;20072;-73
2024/02/08 03:27:53;;;;;;;2.90;1.80;;;;;;;7.07;100.00;95705.06;5023096;28;20042;-73
2024/02/08 03:30:20;;;;;;;2.60;1.83;;;;;;;7.07;100.00;95712.47;5027637;28;20075;-73
2024/02/08 03:32:50;;;;;;;4.47;1.83;;;;;;;7.10;100.00;95706.28;5032219;28;20064;-73
2024/02/08 03:35:38;;;;;;;;;;;;;;;7.11;100.00;95701.63;5018105;28;20037;-73
2024/02/08 03:38:08;;;;;;;3.85;1.95;;;;;;;7.13;100.00;95708.28;5032877;28;19921;-73
2024/02/08 03:40:34;;;;;;;2.20;1.25;;;;;;;7.12;100.00;95700.47;5053855;28;20052;-74
2024/02/08 03:43:00;;;;;;;2.58;1.42;;;;;;;7.18;100.00;95697.06;5035645;28;20047;-73
2024/02/08 03:45:29;;;;;;;2.80;1.63;;;;;;;7.16;100.00;95707.53;5017215;28;20132;-73
2024/02/08 03:47:59;;;;;;;3.40;1.55;;;;;;;7.14;100.00;95693.50;5028772;28;20052;-73
2024/02/08 03:50:33;;;;;;;4.65;1.40;;;;;;;7.26;100.00;95711.56;5029037;28;20856;-73
2024/02/08 03:52:59;;;;;;;2.38;1.38;;;;;;;7.12;100.00;95700.47;5022934;28;20199;-73
2024/02/08 03:55:27;;;;;;;2.53;1.58;;;;;;;7.16;100.00;95704.81;5017747;28;20124;-74
2024/02/08 03:57:56;;;;;;;2.72;1.63;;;;;;;7.18;100.00;95701.72;5020682;28;20049;-74
2024/02/08 04:00:28;;;;;;;2.97;1.60;;;;;;;7.05;100.00;95696.50;5025384;28;20527;-74
2024/02/08 04:02:57;;;;;;;2.60;1.30;;;;;;;7.11;100.00;95698.91;5038169;28;20056;-74
2024/02/08 04:05:36;;;;;;;1.92;1.38;;;;;;;7.14;100.00;95695.44;5008405;28;20483;-74
2024/02/08 04:08:22;;;;;;;2.92;1.70;;;;;;;7.22;100.00;95699.81;5014373;28;20048;-73
2024/02/08 04:54:16;;;;;;;1.55;1.15;;;;;;;7.14;100.00;95690.00;5020181;28;20144;-73
2024/02/08 04:56:42;;;;;;;2.45;1.30;;;;;;;7.08;100.00;95684.09;5038048;28;20082;-73
2024/02/08 04:59:08;;;;;;;2.75;1.30;;;;;;;7.14;100.00;95682.63;5011702;28;20050;-73
2024/02/08 05:01:38;;;;;;;2.13;1.33;;;;;;;7.16;100.00;95687.69;5024210;28;20054;-73
2024/02/08 05:04:06;;;;;;;3.63;1.38;;;;;;;7.10;100.00;95683.72;5024725;28;20040;-74
2024/02/08 05:06:35;;;;;;;1.38;1.15;;;;;;;7.12;100.00;95678.69;5046659;28;20052;-74
2024/02/08 05:09:01;;;;;;;2.22;1.40;;;;;;;7.11;100.00;95688.78;5021209;28;20037;-73
2024/02/08 05:11:30;;;;;;;3.60;1.80;;;;;;;7.19;100.00;95685.03;5021663;28;20128;-72
2024/02/08 05:14:00;;;;;;;2.38;1.50;;;;;;;7.14;100.00;95679.13;5027209;28;20140;-74
2024/02/08 05:16:27;;;;;;;3.10;1.40;;;;;;;7.07;100.00;95677.84;5023288;28;20159;-74
2024/02/08 05:18:53;;;;;;;3.13;1.50;;;;;;;7.12;100.00;95676.75;5023290;28;20058;-73
2024/02/08 05:21:19;;;;;;;2.45;1.58;;;;;;;7.10;100.00;95670.13;5022060;28;20041;-73
2024/02/08 05:23:47;;;;;;;2.78;1.40;;;;;;;7.05;100.00;95666.53;5053283;28;20498;-73
2024/02/08 05:26:18;;;;;;;2.72;1.45;;;;;;;7.08;100.00;95659.59;5031253;28;20037;-74
2024/02/08 05:28:48;;;;;;;2.25;1.40;;;;;;;7.02;100.00;95658.31;5031139;28;20052;-74
2024/02/08 05:31:16;;;;;;;2.58;1.67;;;;;;;6.97;100.00;95658.66;5039185;28;20505;-74
2024/02/08 05:33:42;;;;;;;4.10;1.95;;;;;;;6.97;100.00;95650.47;5045701;28;20053;-74
2024/02/08 05:36:12;;;;;;;4.50;1.70;;;;;;;6.96;100.00;95646.19;5035077;28;20507;-74
2024/02/08 05:38:40;;;;;;;2.78;1.50;;;;;;;6.93;100.00;95646.94;5035991;28;20041;-75
2024/02/08 05:41:07;;;;;;;1.85;1.40;;;;;;;6.95;100.00;95642.72;5032759;28;20045;-74
2024/02/08 05:43:44;;;;;;;1.95;1.40;;;;;;;6.96;100.00;95629.88;5019935;28;20129;-75
2024/02/08 05:46:28;;;;;;;2.55;1.70;;;;;;;6.95;100.00;95628.28;5014489;28;20056;-75
2024/02/08 05:49:13;;;;;;;3.10;2.20;;;;;;;6.98;100.00;95620.16;5018430;28;20129;-74
2024/02/08 05:51:47;;;;;;;3.15;1.88;;;;;;;7.04;100.00;95623.34;5028639;28;20395;-72
2024/02/08 05:54:16;;;;;;;2.53;1.50;;;;;;;6.98;100.00;95624.84;5009554;28;20041;-73
2024/02/08 05:56:43;;;;;;;3.65;1.60;;;;;;;6.96;100.00;95611.59;5020278;28;20405;-73
2024/02/08 05:59:09;;;;;;;2.55;1.50;;;;;;;7.02;100.00;95620.22;5033021;28;20037;-74
2024/02/08 06:01:46;;;;;;;2.17;1.50;;;;;;;7.00;100.00;95611.63;5024434;28;20099;-73
2024/02/08 06:04:24;;;;;;;2.63;1.52;;;;;;;7.03;100.00;95610.91;5015035;28;20504;-73
2024/02/08 06:07:05;;;;;;;2.63;1.52;;;;;;;7.25;100.00;95612.72;5034464;28;20118;-73
2024/02/08 06:09:47;;;;;;;7.78;3.03;;;;;;;7.36;100.00;95601.16;5021154;28;20144;-74
2024/02/08 06:12:28;;;;;;;10.30;2.33;;;;;;;7.38;100.00;95607.03;5014604;28;20049;-73
2024/02/08 06:14:59;;;;;;;5.88;1.92;;;;;;;7.25;100.00;95606.50;5026131;28;20048;-74
2024/02/08 06:17:37;;;;;;;3.50;2.10;;;;;;;7.14;100.00;95606.38;5022205;28;20051;-74
2024/02/08 06:20:08;;;;;;;3.97;1.63;;;;;;;7.20;100.00;95615.78;5016737;28;20045;-76
2024/02/08 06:22:39;;;;;;;4.05;2.30;;;;;;;7.25;100.00;95625.56;5033004;28;20684;-74
2024/02/08 06:25:09;;;;;;;4.47;2.80;;;;;;;7.26;100.00;95625.19;5019212;28;20059;-74
2024/02/08 06:27:38;;;;;;;;;;;;;;;7.28;100.00;95625.59;5014218;28;20045;-74
2024/02/08 06:30:08;;;;;;;3.75;2.72;;;;;;;7.24;100.00;95630.22;5028787;28;19917;-74
2024/02/08 06:32:46;;;;;;;3.00;2.10;;;;;;;7.20;100.00;95632.13;5035163;28;20055;-74
2024/02/08 06:35:19;;;;;;;2.80;2.00;;;;;;;7.14;100.00;95627.38;5012595;28;20051;-73
2024/02/08 06:37:46;;;;;;;2.97;2.15;;;;;;;7.12;100.00;95626.97;5033946;28;20045;-73
2024/02/08 06:40:21;;;;;;;3.53;2.25;;;;;;;7.13;100.00;95626.59;5020797;28;20037;-75
2024/02/08 07:37:17;;;;;;;7.63;4.07;;;;;;;7.63;100.00;95607.28;5017924;28;20092;-75
2024/02/08 07:39:46;;;;;;;9.15;2.70;;;;;;;7.64;100.00;95609.66;5033026;28;20051;-73
2024/02/08 07:42:19;;;;;;;11.60;2.53;;;;;;;7.67;100.00;95608.13;5016746;28;20052;-74
2024/02/08 07:44:50;;;;;;;4.55;2.00;;;;;;;7.71;100.00;95614.38;5029866;28;20690;-74
2024/02/08 07:47:24;;;;;;;3.75;2.40;;;;;;;7.64;100.00;95601.47;5006371;28;20460;-72
2024/02/08 07:50:04;;;;;;;31.83;21.02;;;;;;;7.26;100.00;95602.63;5044294;28;20135;-74
2024/02/08 07:52:38;;;;;;;6.95;5.15;;;;;;;7.12;100.00;95605.97;5020976;28;20069;-74
2024/02/08 07:55:46;;;;;;;5.63;3.78;;;;;;;7.21;100.00;95609.19;5026954;28;20575;-71
2024/02/08 07:58:08;;;;;;;4.57;2.53;;;;;;;7.43;100.00;95620.31;5023891;28;20045;-72
2024/02/08 08:03:08;;;;;;;7.43;2.78;;;;;;;8.06;100.00;95620.53;5027702;28;20455;-74
2024/02/08 08:05:42;;;;;;;4.18;2.40;;;;;;;8.28;100.00;95603.19;5029028;28;20049;-74
2024/02/08 08:08:24;;;;;;;4.90;2.88;;;;;;;8.45;100.00;95603.75;5026296;28;20041;-73
2024/02/08 08:10:57;;;;;;;3.60;2.17;;;;;;;8.48;100.00;95598.31;5027695;28;20077;-72
2024/02/08 08:19:07;;;;;;;3.70;2.30;;;;;;;8.87;100.00;95608.66;5030616;28;20117;-72
2024/02/08 08:24:28;;;;;;;3.28;1.50;;;;;;;8.53;100.00;95597.94;5027724;28;20466;-73
2024/02/08 08:29:44;;;;;;;5.38;2.65;;;;;;;8.35;100.00;95597.00;5032485;28;20044;-75
2024/02/08 08:38:28;;;;;;;4.63;2.20;;;;;;;8.53;100.00;95594.44;5031081;28;20115;-74
2024/02/08 08:40:38;;;;;;;4.28;1.98;;;;;;;8.66;100.00;95598.44;5028053;28;20041;-74
2024/02/08 08:43:10;;;;;;;1.73;1.30;;;;;;;8.58;100.00;95592.13;5023847;28;20140;-72
2024/02/08 08:45:41;;;;;;;3.60;1.63;;;;;;;8.63;100.00;95593.72;5031539;28;20040;-73
2024/02/08 08:48:07;;;;;;;2.83;1.23;;;;;;;8.66;100.00;95590.25;5032679;28;20049;-73
2024/02/08 08:50:33;;;;;;;3.58;1.25;;;;;;;8.59;100.00;95596.44;5039478;28;20134;-74
2024/02/08 08:53:07;;;;;;;6.20;1.20;;;;;;;8.56;100.00;95589.00;5027631;28;20124;-73
2024/02/08 08:55:39;;;;;;;3.08;1.25;;;;;;;8.51;100.00;95588.56;5027234;28;20192;-72
2024/02/08 08:58:12;;;;;;;2.75;1.30;;;;;;;8.52;100.00;95598.34;5050370;28;20041;-72
2024/02/08 09:00:40;;;;;;;1.88;1.50;;;;;;;8.48;100.00;95595.59;5039226;28;20041;-74
2024/02/08 09:03:10;;;;;;;2.45;1.50;;;;;;;8.56;100.00;95599.13;5026339;28;20041;-74
2024/02/08 09:05:36;;;;;;;2.05;1.20;;;;;;;8.49;100.00;95604.53;5028105;28;20056;-74
2024/02/08 09:08:10;;;;;;;3.55;2.10;;;;;;;8.64;100.00;95606.19;5027183;28;20791;-71
2024/02/08 09:10:40;;;;;;;3.67;1.55;;;;;;;8.60;100.00;95602.66;5029877;28;20085;-74
2024/02/08 09:13:07;;;;;;;5.45;2.30;;;;;;;8.72;100.00;95596.88;5025797;28;20053;-74
2024/02/08 09:18:19;;;;;;;3.95;2.00;;;;;;;8.97;100.00;95601.72;5035406;28;20041;-73
2024/02/08 09:20:44;;;;;;;6.20;2.60;;;;;;;8.93;100.00;95598.16;5029396;28;20148;-74
2024/02/08 09:23:13;;;;;;;3.42;1.40;;;;;;;9.03;100.00;95613.06;5038963;28;20041;-74
2024/02/08 09:25:44;;;;;;;6.88;1.77;;;;;;;9.05;100.00;95614.22;5025536;28;20192;-74
2024/02/08 09:28:23;;;;;;;3.83;1.45;;;;;;;9.01;100.00;95607.19;5021495;28;20073;-73
2024/02/08 09:30:59;;;;;;;3.55;1.38;;;;;;;9.23;100.00;95605.31;5016826;28;20048;-72
2024/02/08 09:33:31;;;;;;;5.55;1.75;;;;;;;9.17;100.00;95596.72;5022948;28;20041;-73
2024/02/08 09:35:59;;;;;;;4.78;1.70;;;;;;;9.07;100.00;95603.69;5020842;28;20102;-74
2024/02/08 09:38:42;;;;;;;2.67;1.52;;;;;;;8.85;100.00;95602.81;5028372;28;20045;-73
2024/02/08 09:41:09;;;;;;;3.30;1.60;;;;;;;8.88;100.00;95606.75;5029173;28;20107;-73
2024/02/08 09:43:35;;;;;;;3.80;1.48;;;;;;;8.83;100.00;95596.19;5026829;28;20042;-74
2024/02/08 09:46:16;;;;;;;6.75;1.45;;;;;;;8.68;100.00;95596.09;5034694;28;20044;-70
2024/02/08 09:48:47;;;;;;;3.70;1.70;;;;;;;8.71;100.00;95603.50;5024683;28;20145;-73
2024/02/08 09:51:23;;;;;;;6.28;1.80;;;;;;;8.79;100.00;95602.38;5024990;28;20045;-73
2024/02/08 09:53:54;;;;;;;2.75;1.40;;;;;;;8.98;100.00;95600.53;5040339;28;20052;-72
2024/02/08 09:56:29;;;;;;;7.97;1.77;;;;;;;8.95;100.00;95599.34;5045230;28;20497;-73
2024/02/08 09:59:02;;;;;;;9.32;1.48;;;;;;;8.84;100.00;95601.25;5036932;28;20048;-73
2024/02/08 10:01:35;;;;;;;13.45;1.60;;;;;;;8.83;100.00;95591.50;5030859;28;20135;-74
2024/02/08 10:04:15;;;;;;;4.32;1.60;;;;;;;8.88;100.00;95593.09;5049355;28;20203;-74
2024/02/08 10:12:29;;;;;;;2.72;1.40;;;;;;;8.86;100.00;95598.94;5032670;28;20646;-73
2024/02/08 10:14:59;;;;;;;6.03;1.48;;;;;;;8.88;100.00;95590.34;5038312;28;20064;-74
2024/02/08 10:17:24;;;;;;;3.50;1.80;;;;;;;9.07;100.00;95586.53;5028980;28;20049;-73
2024/02/08 10:20:31;;;;;;;4.43;1.48;;;;;;;9.15;100.00;95575.25;5039779;28;20048;-73
2024/02/08 10:22:43;;;;;;;6.03;2.35;;;;;;;9.22;100.00;95574.50;5036871;28;20072;-72
2024/02/08 10:27:57;;;;;;;10.20;2.47;;;;;;;9.15;100.00;95583.44;5033302;28;20115;-73
2024/02/08 10:30:25;;;;;;;2.90;1.52;;;;;;;9.08;100.00;95588.09;5032126;28;20272;-74
2024/02/08 10:32:53;;;;;;;5.05;1.50;;;;;;;9.19;100.00;95588.91;5033772;28;20044;-75
2024/02/08 10:35:26;;;;;;;5.45;2.15;;;;;;;9.21;100.00;95583.84;5031856;28;20037;-74
2024/02/08 10:38:07;;;;;;;5.53;2.13;;;;;;;9.29;100.00;95577.25;5035630;28;20048;-74
2024/02/08 10:40:34;;;;;;;3.20;1.60;;;;;;;9.35;100.00;95574.94;5012462;28;20087;-74
2024/02/08 10:43:03;;;;;;;4.30;2.08;;;;;;;9.60;100.00;95575.00;5037183;28;20387;-73
2024/02/08 10:45:43;;;;;;;4.60;1.92;;;;;;;9.62;100.00;95571.88;5036573;28;20136;-74
2024/02/08 10:48:13;;;;;;;2.53;1.58;;;;;;;9.43;100.00;95570.25;5029474;28;20095;-74
2024/02/08 10:50:41;;;;;;;4.15;1.38;;;;;;;9.37;100.00;95578.81;5033294;28;20508;-73
2024/02/08 10:53:16;;;;;;;4.53;1.65;;;;;;;9.26;100.00;95567.09;5034359;28;20691;-73
2024/02/08 10:55:59;;;;;;;3.88;1.35;;;;;;;9.13;100.00;95561.19;5030392;28;20590;-73
2024/02/08 10:58:28;;;;;;;4.30;1.55;;;;;;;9.22;100.00;95569.03;5016807;28;20164;-73
2024/02/08 11:01:13;;;;;;;5.95;2.00;;;;;;;9.10;100.00;95564.69;5050923;28;20083;-71
2024/02/08 11:03:52;;;;;;;3.47;2.00;;;;;;;9.16;100.00;95552.25;5025128;28;20675;-73
2024/02/08 11:06:31;;;;;;;4.43;2.40;;;;;;;9.18;100.00;95554.56;5025393;28;20041;-72
2024/02/08 11:09:18;;;;;;;3.88;2.00;;;;;;;9.03;100.00;95550.22;5029291;28;20045;-74
2024/02/08 11:11:59;;;;;;;3.05;1.70;;;;;;;9.11;100.00;95555.34;5033844;28;20658;-75
2024/02/08 11:14:27;;;;;;;6.60;3.58;;;;;;;9.05;100.00;95548.66;5035269;28;20550;-73
2024/02/08 11:16:54;;;;;;;6.85;2.53;;;;;;;8.92;100.00;95552.91;5025102;28;20050;-74
2024/02/08 11:19:22;;;;;;;2.35;1.50;;;;;;;8.92;100.00;95545.50;5014524;28;20124;-71
2024/02/08 11:21:49;;;;;;;2.35;1.42;;;;;;;8.88;100.00;95538.47;5029793;28;20468;-74
2024/02/08 11:24:27;;;;;;;2.70;1.60;;;;;;;8.88;100.00;95543.94;5021008;28;20067;-74
2024/02/08 11:26:58;;;;;;;2.30;1.40;;;;;;;8.94;100.00;95529.50;5030490;28;20045;-74
2024/02/08 11:29:26;;;;;;;2.42;1.45;;;;;;;8.88;100.00;95533.78;5023432;28;20615;-74
2024/02/08 11:31:55;;;;;;;3.67;1.60;;;;;;;8.92;100.00;95531.84;5028630;28;20047;-74
2024/02/08 11:34:24;;;;;;;2.53;1.23;;;;;;;8.96;100.00;95527.16;5023209;28;20064;-73
2024/02/08 11:36:52;;;;;;;4.07;1.33;;;;;;;9.05;100.00;95515.88;5028821;28;20052;-72
2024/02/08 11:39:33;;;;;;;5.72;1.80;;;;;;;9.18;100.00;95516.31;5042750;28;20086;-72
2024/02/08 11:42:00;;;;;;;2.22;1.42;;;;;;;9.45;100.00;95510.53;5032175;28;20499;-74
2024/02/08 11:44:36;;;;;;;2.25;1.50;;;;;;;9.43;100.00;95497.25;5045672;28;20447;-75
2024/02/08 11:47:17;;;;;;;2.88;1.45;;;;;;;9.30;100.00;95499.56;5046486;28;20612;-71
2024/02/08 11:50:01;;;;;;;4.00;1.58;;;;;;;9.42;100.00;95494.88;5048098;28;20041;-72
2024/02/08 11:52:27;;;;;;;5.95;1.80;;;;;;;9.39;100.00;95499.19;5019340;28;20077;-71
2024/02/08 11:55:01;;;;;;;2.30;1.33;;;;;;;9.50;100.00;95497.25;5034992;28;20051;-72
2024/02/08 11:57:36;;;;;;;2.92;1.70;;;;;;;9.60;100.00;95489.44;5013055;28;20145;-71
2024/02/08 12:00:15;;;;;;;2.55;1.67;;;;;;;9.75;100.00;95485.56;5030911;28;20242;-70
2024/02/08 12:02:47;;;;;;;1.65;1.10;;;;;;;9.73;100.00;95485.94;5045005;28;20583;-74
2024/02/08 12:05:15;;;;;;;1.92;1.27;;;;;;;9.91;100.00;95479.69;5025328;28;20126;-73
2024/02/08 12:07:45;;;;;;;3.45;1.55;;;;;;;10.10;100.00;95465.63;5032627;28;20076;-74
2024/02/08 12:10:16;;;;;;;3.33;1.38;;;;;;;10.03;100.00;95460.16;5027192;28;20727;-74
2024/02/08 12:12:43;;;;;;;2.45;1.30;;;;;;;10.05;100.00;95454.28;5036401;28;20051;-72
2024/02/08 12:15:09;;;;;;;4.15;1.20;;;;;;;10.03;100.00;95454.69;5038050;28;20083;-74
2024/02/08 12:17:35;;;;;;;2.22;1.10;;;;;;;10.18;100.00;95455.44;5043192;28;20033;-74
2024/02/08 12:20:00;;;;;;;1.88;1.10;;;;;;;10.23;100.00;95454.25;5047457;28;20526;-77
2024/02/08 12:22:26;;;;;;;1.77;0.95;;;;;;;10.35;100.00;95456.56;5037970;28;20051;-73
2024/02/08 12:25:02;;;;;;;5.68;1.40;;;;;;;10.38;100.00;95444.84;5040837;28;20056;-73
2024/02/08 12:27:29;;;;;;;2.88;1.02;;;;;;;10.36;100.00;95438.22;5010394;28;20076;-73
2024/02/08 12:29:56;;;;;;;1.90;1.02;;;;;;;10.25;100.00;95449.94;5029768;28;20111;-74
2024/02/08 12:32:27;;;;;;;4.07;1.08;;;;;;;10.16;100.00;95441.38;5033254;28;20064;-74
2024/02/08 12:34:54;;;;;;;3.05;1.38;;;;;;;10.18;100.00;95443.72;5023072;28;20583;-74
2024/02/08 12:37:28;;;;;;;1.95;1.10;;;;;;;10.09;100.00;95436.69;5024805;28;20045;-72
2024/02/08 12:39:55;;;;;;;2.47;1.10;;;;;;;10.12;100.00;95435.13;5038696;28;20047;-73
2024/02/08 12:42:23;;;;;;;2.85;1.20;;;;;;;10.03;100.00;95429.25;5023713;28;20037;-74
2024/02/08 12:44:50;;;;;;;4.50;2.13;;;;;;;9.98;100.00;95435.16;5043899;28;20083;-73
2024/02/08 12:47:19;;;;;;;8.18;4.38;;;;;;;10.05;100.00;95437.88;5024180;28;20509;-74
2024/02/08 12:49:46;;;;;;;2.38;1.15;;;;;;;10.16;100.00;95435.88;5029828;28;20090;-74
2024/02/08 12:52:15;;;;;;;4.82;1.13;;;;;;;10.09;100.00;95427.69;5025852;28;20393;-74
2024/02/08 12:54:41;;;;;;;5.20;1.77;;;;;;;10.05;100.00;95432.41;5039625;28;20049;-74
2024/02/08 12:57:10;;;;;;;4.93;1.42;;;;;;;10.07;100.00;95435.53;5026532;28;20533;-74
2024/02/08 12:59:43;;;;;;;2.10;1.08;;;;;;;10.12;100.00;95430.44;5024759;28;20071;-73
2024/02/08 13:02:16;;;;;;;4.55;1.15;;;;;;;10.09;100.00;95417.53;5025642;28;20055;-74
2024/02/08 13:04:48;;;;;;;2.92;1.13;;;;;;;10.08;100.00;95418.72;5026696;28;20056;-74
2024/02/08 13:07:15;;;;;;;2.47;1.20;;;;;;;10.16;100.00;95418.72;5023217;28;20415;-75
2024/02/08 13:09:41;;;;;;;3.42;1.50;;;;;;;10.20;100.00;95416.72;5029783;28;20068;-74
2024/02/08 13:12:18;;;;;;;1.42;0.82;;;;;;;10.22;100.00;95409.69;5025057;28;20088;-72
2024/02/08 13:15:05;;;;;;;3.70;1.23;;;;;;;10.24;100.00;95404.59;5025794;28;20480;-74
2024/02/08 13:17:35;;;;;;;2.05;1.17;;;;;;;10.21;100.00;95396.38;5026317;28;20518;-72
2024/02/08 13:20:12;;;;;;;2.75;1.20;;;;;;;10.26;100.00;95390.50;5043447;28;20049;-73
2024/02/08 13:22:45;;;;;;;2.33;0.90;;;;;;;10.21;100.00;95390.91;5029266;28;20136;-74
2024/02/08 13:25:12;;;;;;;2.00;0.90;;;;;;;10.26;100.00;95390.50;5018339;28;20045;-74
2024/02/08 13:27:41;;;;;;;2.30;1.13;;;;;;;10.32;100.00;95391.72;5037380;28;20448;-74
2024/02/08 13:30:17;;;;;;;4.20;1.58;;;;;;;10.26;100.00;95396.78;5025136;28;20136;-76
2024/02/08 13:32:44;;;;;;;2.65;1.20;;;;;;;10.31;100.00;95392.88;5012102;28;20091;-74
2024/02/08 13:35:18;;;;;;;7.95;1.38;;;;;;;10.35;100.00;95385.41;5022652;28;20045;-71
2024/02/08 13:37:48;;;;;;;4.82;1.40;;;;;;;10.38;100.00;95386.59;5030702;28;20048;-72
2024/02/08 13:40:15;;;;;;;5.50;1.30;;;;;;;10.48;100.00;95380.31;5022552;28;20063;-73
2024/02/08 13:42:42;;;;;;;7.32;3.08;;;;;;;10.51;100.00;95380.28;5019479;28;20045;-74
2024/02/08 13:45:09;;;;;;;8.75;2.53;;;;;;;10.56;100.00;95381.81;5021381;28;20068;-74
2024/02/08 13:47:36;;;;;;;6.63;2.35;;;;;;;10.65;100.00;95375.91;5030414;28;20272;-75
2024/02/08 13:50:02;;;;;;;7.05;1.40;;;;;;;10.77;100.00;95366.44;5034943;28;20501;-71
2024/02/08 13:52:30;;;;;;;15.68;2.15;;;;;;;10.82;100.00;95366.03;5039879;28;20522;-71
2024/02/08 13:54:58;;;;;;;28.42;2.00;;;;;;;10.98;100.00;95363.56;5028237;28;20045;-71